Time;durP1;ratioP1;P1;durP2;ratioP2;P2;SDS_P1;SDS_P2;PMS_P1;PMS_P2;Temp;Humidity;BMP_temperature;BMP_pressure;BME280_temperature;BME280_humidity;BME280_pressure;Samples;Min_cycle;Max_cycle;Signal;HPM_P1;HPM_P2
2021/11/11 00:00:09;;;;;;;29.25;17.55;;;;;;;-3.57;100.00;103211.56;1753205;81;21008;-80
2021/11/11 00:02:38;;;;;;;28.02;17.55;;;;;;;-3.62;100.00;103199.98;1753279;81;21003;-80
2021/11/11 00:05:09;;;;;;;23.67;15.63;;;;;;;-3.63;100.00;103205.05;1765253;80;21527;-79
2021/11/11 00:07:38;;;;;;;23.65;15.65;;;;;;;-3.70;100.00;103195.09;1784797;80;21503;-80
2021/11/11 00:10:11;;;;;;;29.07;16.57;;;;;;;-3.72;100.00;103191.64;1752825;80;21538;-80
2021/11/11 00:12:38;;;;;;;26.77;15.70;;;;;;;-3.76;100.00;103188.16;1785235;80;20998;-82
2021/11/11 00:15:11;;;;;;;25.35;15.68;;;;;;;-3.80;100.00;103189.77;1785080;80;21226;-79
2021/11/11 00:17:39;;;;;;;26.60;15.88;;;;;;;-3.84;100.00;103190.52;1785242;80;21133;-79
2021/11/11 00:20:10;;;;;;;27.02;15.78;;;;;;;-3.90;100.00;103185.27;1750134;82;21069;-79
2021/11/11 00:22:41;;;;;;;25.40;15.93;;;;;;;-3.95;100.00;103184.27;1750302;81;21006;-79
2021/11/11 00:25:10;;;;;;;23.05;13.75;;;;;;;-3.97;100.00;103196.11;1750123;82;21475;-80
2021/11/11 00:27:51;;;;;;;24.82;15.95;;;;;;;-4.04;100.00;103195.47;1750550;81;21011;-79
2021/11/11 00:30:20;;;;;;;23.38;14.15;;;;;;;-4.08;100.00;103188.58;1750282;81;21128;-80
2021/11/11 00:32:50;;;;;;;20.45;13.48;;;;;;;-4.15;100.00;103192.23;1745904;82;21029;-79
2021/11/11 00:35:25;;;;;;;21.80;14.07;;;;;;;-4.16;100.00;103184.15;1747714;82;21055;-80
2021/11/11 00:37:53;;;;;;;22.15;13.55;;;;;;;-4.16;100.00;103182.87;1733163;82;21038;-80
2021/11/11 00:40:21;;;;;;;21.90;13.22;;;;;;;-4.13;100.00;103182.94;1733038;82;21062;-79
2021/11/11 00:42:48;;;;;;;19.42;13.32;;;;;;;-4.10;100.00;103180.91;1733221;82;21123;-80
2021/11/11 00:45:16;;;;;;;22.30;13.62;;;;;;;-4.07;100.00;103173.77;1733035;82;21078;-79
2021/11/11 00:47:45;;;;;;;19.95;12.45;;;;;;;-4.06;100.00;103166.16;1733184;82;21551;-80
2021/11/11 00:50:14;;;;;;;20.45;13.15;;;;;;;-4.03;100.00;103165.37;1732901;82;21023;-79
2021/11/11 00:52:41;;;;;;;20.90;12.82;;;;;;;-3.98;100.00;103165.11;1733086;82;21035;-80
2021/11/11 00:55:10;;;;;;;24.02;14.23;;;;;;;-3.96;100.00;103164.71;1704006;82;21811;-79
2021/11/11 00:57:39;;;;;;;21.85;13.85;;;;;;;-3.96;100.00;103153.26;1728956;82;21043;-79
2021/11/11 01:00:11;;;;;;;26.40;14.35;;;;;;;-4.02;100.00;103142.92;1732887;82;21050;-79
2021/11/11 01:02:39;;;;;;;26.68;14.90;;;;;;;-4.06;100.00;103146.22;1733313;82;21027;-80
2021/11/11 01:05:08;;;;;;;21.27;13.50;;;;;;;-4.10;100.00;103141.86;1733030;82;21117;-80
2021/11/11 01:07:38;;;;;;;20.27;12.07;;;;;;;-4.14;100.00;103135.83;1738447;82;21492;-80
2021/11/11 01:10:09;;;;;;;19.27;12.45;;;;;;;-4.19;100.00;103131.87;1740666;82;21065;-79
2021/11/11 01:12:36;;;;;;;21.12;13.20;;;;;;;-4.20;100.00;103133.97;1740865;82;21132;-81
2021/11/11 01:15:08;;;;;;;22.37;14.03;;;;;;;-4.22;100.00;103130.55;1689507;82;21551;-80
2021/11/11 01:17:35;;;;;;;22.15;13.00;;;;;;;-4.27;100.00;103125.72;1737705;82;21041;-79
2021/11/11 01:20:05;;;;;;;19.77;11.68;;;;;;;-4.35;100.00;103128.47;1739258;81;21131;-79
2021/11/11 01:22:32;;;;;;;19.82;12.53;;;;;;;-4.46;100.00;103123.97;1660368;84;21006;-80
2021/11/11 01:24:59;;;;;;;20.08;12.33;;;;;;;-4.50;100.00;103117.48;1687900;85;21014;-80
2021/11/11 01:27:26;;;;;;;20.08;12.20;;;;;;;-4.51;100.00;103110.23;1695578;83;21034;-78
2021/11/11 01:29:54;;;;;;;21.87;12.03;;;;;;;-4.54;100.00;103120.34;1687803;85;21504;-80
2021/11/11 01:32:21;;;;;;;20.20;11.78;;;;;;;-4.53;100.00;103131.37;1687808;85;21181;-80
2021/11/11 01:34:48;;;;;;;16.90;11.43;;;;;;;-4.47;100.00;103133.69;1695567;83;21026;-79
2021/11/11 01:37:15;;;;;;;18.90;12.40;;;;;;;-4.38;100.00;103139.85;1688041;85;21035;-79
2021/11/11 01:39:44;;;;;;;22.30;13.65;;;;;;;-4.32;100.00;103134.50;1687246;85;21536;-80
2021/11/11 01:42:11;;;;;;;20.60;12.80;;;;;;;-4.32;100.00;103123.48;1682821;85;21042;-79
2021/11/11 01:44:52;;;;;;;22.77;12.68;;;;;;;-4.35;100.00;103119.56;1687948;85;21162;-81
2021/11/11 01:47:22;;;;;;;17.75;11.12;;;;;;;-4.39;100.00;103120.31;1682627;85;21035;-78
2021/11/11 01:49:51;;;;;;;19.02;11.90;;;;;;;-4.41;100.00;103120.67;1687960;85;21089;-78
2021/11/11 01:52:18;;;;;;;19.52;12.63;;;;;;;-4.36;100.00;103122.92;1695640;83;21058;-79
2021/11/11 01:54:51;;;;;;;22.07;12.53;;;;;;;-4.36;100.00;103119.98;1687319;85;21101;-80
2021/11/11 01:57:19;;;;;;;18.62;12.40;;;;;;;-4.36;100.00;103121.26;1688053;85;21150;-79
2021/11/11 01:59:48;;;;;;;18.02;11.28;;;;;;;-4.35;100.00;103118.29;1687247;84;21583;-79
2021/11/11 02:02:28;;;;;;;18.05;12.05;;;;;;;-4.32;100.00;103132.38;1701527;83;21495;-78
2021/11/11 02:04:56;;;;;;;19.95;11.63;;;;;;;-4.32;100.00;103129.41;1685908;85;21066;-79
2021/11/11 02:07:23;;;;;;;20.88;12.60;;;;;;;-4.34;100.00;103127.66;1710242;81;21073;-79
2021/11/11 02:09:52;;;;;;;21.93;12.93;;;;;;;-4.38;100.00;103129.25;1765048;80;22150;-80
2021/11/11 02:12:24;;;;;;;20.82;13.35;;;;;;;-4.39;100.00;103122.86;1774397;80;21045;-80
2021/11/11 02:14:53;;;;;;;24.72;14.68;;;;;;;-4.41;100.00;103118.13;1779646;80;21061;-79
2021/11/11 02:17:29;;;;;;;20.80;13.35;;;;;;;-4.49;100.00;103109.88;1780388;80;21037;-80
2021/11/11 02:20:06;;;;;;;21.30;13.05;;;;;;;-4.57;100.00;103112.62;1779891;80;21040;-80
2021/11/11 02:22:35;;;;;;;17.75;11.68;;;;;;;-4.66;100.00;103110.69;1732887;80;21269;-80
2021/11/11 02:25:09;;;;;;;19.52;12.20;;;;;;;-4.71;100.00;103108.41;1784307;80;21020;-78
2021/11/11 02:27:40;;;;;;;20.90;13.08;;;;;;;-4.69;100.00;103112.28;1780279;80;21045;-79
2021/11/11 02:30:10;;;;;;;17.67;11.33;;;;;;;-4.68;100.00;103117.80;1784682;80;21041;-80
2021/11/11 02:32:40;;;;;;;16.42;10.82;;;;;;;-4.71;100.00;103120.27;1784500;80;21120;-80
2021/11/11 02:35:10;;;;;;;16.48;11.05;;;;;;;-4.71;100.00;103105.86;1784499;80;21231;-80
2021/11/11 02:37:39;;;;;;;18.33;11.17;;;;;;;-4.68;100.00;103106.35;1784828;80;21092;-79
2021/11/11 02:40:13;;;;;;;18.20;11.55;;;;;;;-4.67;100.00;103092.83;1780128;80;21352;-79
2021/11/11 02:42:44;;;;;;;16.60;10.20;;;;;;;-4.67;100.00;103094.09;1783841;80;21519;-80
2021/11/11 02:45:18;;;;;;;18.32;10.58;;;;;;;-4.69;100.00;103093.22;1722881;80;21072;-78
2021/11/11 02:47:46;;;;;;;15.72;9.95;;;;;;;-4.68;100.00;103092.37;1752198;80;21136;-79
2021/11/11 02:50:14;;;;;;;17.10;9.90;;;;;;;-4.68;100.00;103091.98;1784880;80;22383;-81
2021/11/11 02:52:44;;;;;;;16.00;9.70;;;;;;;-4.68;100.00;103089.83;1784679;80;21049;-79
2021/11/11 02:55:12;;;;;;;16.50;9.23;;;;;;;-4.69;100.00;103103.39;1784608;80;20994;-82
2021/11/11 02:57:44;;;;;;;15.05;9.60;;;;;;;-4.69;100.00;103109.32;1784707;80;20967;-79
2021/11/11 03:00:18;;;;;;;13.83;8.80;;;;;;;-4.64;100.00;103114.53;1785272;80;21326;-82
2021/11/11 03:02:49;;;;;;;15.83;8.93;;;;;;;-4.61;100.00;103109.55;1784959;80;21930;-82
2021/11/11 03:05:25;;;;;;;14.98;9.05;;;;;;;-4.56;100.00;103105.84;1779801;79;21120;-79
2021/11/11 03:07:53;;;;;;;14.68;9.15;;;;;;;-4.51;100.00;103103.03;1777862;80;21037;-78
2021/11/11 03:10:27;;;;;;;12.53;8.48;;;;;;;-4.46;100.00;103097.26;1784741;80;21013;-80
2021/11/11 03:12:56;;;;;;;14.53;8.80;;;;;;;-4.40;100.00;103100.78;1785160;80;21223;-79
2021/11/11 03:15:26;;;;;;;15.38;8.88;;;;;;;-4.38;100.00;103097.45;1785153;80;21026;-79
2021/11/11 03:17:54;;;;;;;14.78;9.03;;;;;;;-4.36;100.00;103100.02;1784861;80;21021;-81
2021/11/11 03:20:22;;;;;;;13.10;8.75;;;;;;;-4.32;100.00;103099.30;1752105;80;21856;-80
2021/11/11 03:22:50;;;;;;;15.78;9.93;;;;;;;-4.33;100.00;103095.91;1784677;80;22645;-79
2021/11/11 03:25:22;;;;;;;13.98;8.58;;;;;;;-4.36;100.00;103093.67;1784809;80;21146;-78
2021/11/11 03:27:51;;;;;;;15.50;9.18;;;;;;;-4.40;100.00;103093.14;1777764;80;21563;-80
2021/11/11 03:30:22;;;;;;;14.63;8.73;;;;;;;-4.41;100.00;103086.33;1751948;80;22540;-79
2021/11/11 03:32:51;;;;;;;11.73;8.18;;;;;;;-4.40;100.00;103088.91;1778374;80;21753;-84
2021/11/11 03:35:19;;;;;;;24.90;8.08;;;;;;;-4.41;100.00;103085.94;1785102;80;21120;-80
2021/11/11 03:37:51;;;;;;;13.53;7.92;;;;;;;-4.37;100.00;103085.61;1784796;80;21587;-80
2021/11/11 03:40:27;;;;;;;13.28;8.58;;;;;;;-4.37;100.00;103083.91;1743431;81;21033;-80
2021/11/11 03:42:57;;;;;;;13.68;8.43;;;;;;;-4.42;100.00;103079.12;1694593;82;21792;-78
2021/11/11 03:45:27;;;;;;;13.35;8.50;;;;;;;-4.44;100.00;103073.97;1718934;82;21069;-81
2021/11/11 03:47:57;;;;;;;15.75;8.70;;;;;;;-4.43;100.00;103082.48;1785251;80;21590;-80
2021/11/11 03:50:24;;;;;;;14.35;8.80;;;;;;;-4.43;100.00;103081.22;1785228;80;21118;-80
2021/11/11 03:52:52;;;;;;;13.72;8.63;;;;;;;-4.41;100.00;103087.21;1785086;80;21310;-79
2021/11/11 03:55:24;;;;;;;17.57;8.65;;;;;;;-4.39;100.00;103075.80;1784835;80;21151;-79
2021/11/11 03:57:51;;;;;;;22.35;8.80;;;;;;;-4.36;100.00;103078.01;1718479;80;21026;-80
2021/11/11 04:00:19;;;;;;;16.25;9.05;;;;;;;-4.29;100.00;103085.41;1785191;80;21048;-79
2021/11/11 04:02:48;;;;;;;12.20;8.15;;;;;;;-4.23;100.00;103078.32;1778344;80;21799;-79
2021/11/11 04:05:16;;;;;;;13.08;8.83;;;;;;;-4.21;100.00;103076.29;1785090;80;21569;-78
2021/11/11 04:07:44;;;;;;;15.00;8.85;;;;;;;-4.16;100.00;103075.11;1809084;78;21072;-80
2021/11/11 04:10:14;;;;;;;16.20;9.40;;;;;;;-4.17;100.00;103078.08;1793125;78;21025;-79
2021/11/11 04:12:41;;;;;;;15.58;10.43;;;;;;;-4.15;100.00;103076.84;1793064;78;20994;-79
2021/11/11 04:15:12;;;;;;;17.77;11.00;;;;;;;-4.15;100.00;103066.66;1791506;79;21091;-79
2021/11/11 04:17:42;;;;;;;17.50;10.30;;;;;;;-4.22;100.00;103060.96;1792203;80;21059;-81
2021/11/11 04:20:11;;;;;;;24.43;10.13;;;;;;;-4.29;100.00;103060.81;1793203;80;21096;-80
2021/11/11 04:22:41;;;;;;;106.37;16.30;;;;;;;-4.35;100.00;103061.05;1787994;80;21072;-80
2021/11/11 04:25:15;;;;;;;19.32;10.85;;;;;;;-4.05;100.00;103061.41;1793062;80;20986;-81
2021/11/11 04:27:47;;;;;;;28.05;10.65;;;;;;;-3.61;100.00;103066.70;1788977;80;21228;-80
2021/11/11 04:30:31;;;;;;;16.93;10.23;;;;;;;-3.50;100.00;103066.95;1788366;80;20993;-81
2021/11/11 04:32:44;;;;;;;22.17;11.08;;;;;;;-3.57;100.00;103069.79;1770938;80;21050;-82
2021/11/11 04:35:11;;;;;;;107.87;16.73;;;;;;;-3.65;100.00;103068.75;1761278;80;21958;-85
2021/11/11 04:37:53;;;;;;;29.27;14.18;;;;;;;-3.56;100.00;103063.84;1793216;80;21098;-79
2021/11/11 04:43:11;;;;;;;21.17;11.97;;;;;;;-2.13;100.00;103061.62;1754502;80;21025;-80
2021/11/11 05:02:07;;;;;;;40.08;13.88;;;;;;;-2.64;100.00;103073.02;1728264;82;21014;-86
2021/11/11 05:04:07;;;;;;;34.75;12.98;;;;;;;-2.38;100.00;103079.05;1728011;82;21128;-86
2021/11/11 05:06:35;;;;;;;22.62;14.70;;;;;;;-2.13;100.00;103087.15;1699498;83;21169;-83
2021/11/11 05:09:02;;;;;;;24.25;14.55;;;;;;;-2.18;100.00;103082.36;1702194;82;21447;-85
2021/11/11 05:11:30;;;;;;;26.02;14.18;;;;;;;-2.38;100.00;103082.44;1688448;83;21044;-81
2021/11/11 05:13:57;;;;;;;26.82;14.07;;;;;;;-2.56;100.00;103085.91;1706239;82;22003;-81
2021/11/11 05:16:25;;;;;;;33.70;13.83;;;;;;;-2.68;100.00;103090.78;1687820;83;22026;-82
2021/11/11 05:18:53;;;;;;;22.40;14.38;;;;;;;-2.76;100.00;103093.17;1719905;83;21081;-87
2021/11/11 05:21:21;;;;;;;23.38;13.75;;;;;;;-2.81;100.00;103092.22;1719669;83;21066;-84
2021/11/11 05:23:49;;;;;;;27.02;14.80;;;;;;;-2.87;100.00;103091.67;1719665;83;21033;-83
2021/11/11 05:26:18;;;;;;;22.15;13.22;;;;;;;-2.92;100.00;103089.03;1715312;82;21026;-82
2021/11/11 05:28:45;;;;;;;24.67;14.68;;;;;;;-2.89;100.00;103092.92;1716226;83;21081;-83
2021/11/11 05:31:14;;;;;;;32.63;19.00;;;;;;;-2.87;100.00;103085.30;1713908;82;21128;-82
2021/11/11 05:33:42;;;;;;;23.98;15.45;;;;;;;-2.92;100.00;103089.45;1715432;83;21066;-83
2021/11/11 05:36:09;;;;;;;22.58;13.70;;;;;;;-2.99;100.00;103091.43;1688558;83;21073;-84
2021/11/11 05:38:36;;;;;;;16.52;11.12;;;;;;;-3.04;100.00;103087.51;1715248;83;21019;-85
2021/11/11 05:41:04;;;;;;;20.15;12.07;;;;;;;-3.05;100.00;103086.66;1712352;82;21114;-83
2021/11/11 05:43:32;;;;;;;21.15;12.43;;;;;;;-3.04;100.00;103082.41;1716292;83;21171;-83
2021/11/11 05:46:00;;;;;;;23.57;13.30;;;;;;;-3.04;100.00;103074.76;1716167;83;21602;-83
2021/11/11 05:48:27;;;;;;;21.05;14.50;;;;;;;-3.04;100.00;103070.50;1716417;83;21764;-82
2021/11/11 05:50:55;;;;;;;26.48;17.15;;;;;;;-3.05;100.00;103070.09;1685629;83;21072;-83
2021/11/11 05:53:22;;;;;;;32.13;19.90;;;;;;;-3.06;100.00;103068.76;1703994;83;21508;-83
2021/11/11 05:55:51;;;;;;;25.55;15.05;;;;;;;-3.04;100.00;103070.50;1665378;84;21151;-84
2021/11/11 05:58:18;;;;;;;21.52;13.93;;;;;;;-3.02;100.00;103066.73;1696490;83;21042;-80
2021/11/11 06:00:45;;;;;;;22.87;13.62;;;;;;;-2.98;100.00;103067.66;1721957;83;21650;-80
2021/11/11 06:03:16;;;;;;;23.77;14.55;;;;;;;-2.98;100.00;103068.51;1719101;82;21101;-83
2021/11/11 06:05:44;;;;;;;18.27;13.28;;;;;;;-2.92;100.00;103062.25;1690710;83;21065;-81
2021/11/11 06:08:13;;;;;;;21.27;14.05;;;;;;;-2.87;100.00;103060.67;1724035;81;21189;-82
2021/11/11 06:10:40;;;;;;;21.40;14.60;;;;;;;-2.78;100.00;103059.14;1720143;82;21065;-82
2021/11/11 06:13:07;;;;;;;21.05;13.65;;;;;;;-2.72;100.00;103061.80;1740610;82;21506;-83
2021/11/11 06:15:35;;;;;;;21.02;13.90;;;;;;;-2.65;100.00;103057.27;1724833;83;21022;-83
2021/11/11 06:18:02;;;;;;;23.05;14.25;;;;;;;-2.61;100.00;103057.78;1740115;81;21049;-84
2021/11/11 06:20:34;;;;;;;21.57;13.38;;;;;;;-2.55;100.00;103059.17;1767171;81;21917;-83
2021/11/11 06:23:03;;;;;;;18.67;12.50;;;;;;;-2.49;100.00;103053.33;1758044;81;21104;-83
2021/11/11 06:25:30;;;;;;;20.50;12.78;;;;;;;-2.41;100.00;103052.17;1760553;80;21511;-81
2021/11/11 06:27:59;;;;;;;19.95;12.65;;;;;;;-2.32;100.00;103056.17;1757999;81;21104;-80
2021/11/11 06:30:26;;;;;;;18.35;12.78;;;;;;;-2.24;100.00;103046.08;1760301;80;20999;-81
2021/11/11 06:32:53;;;;;;;17.95;12.65;;;;;;;-2.13;100.00;103054.80;1743265;81;21670;-81
2021/11/11 06:35:21;;;;;;;20.37;13.70;;;;;;;-2.02;100.00;103049.87;1753022;80;21038;-81
2021/11/11 06:37:48;;;;;;;21.45;12.65;;;;;;;-1.92;100.00;103054.70;1724497;82;21491;-81
2021/11/11 06:40:14;;;;;;;18.90;12.35;;;;;;;-1.84;100.00;103058.24;1720712;81;21554;-81
2021/11/11 06:42:42;;;;;;;19.37;12.68;;;;;;;-1.73;100.00;103060.12;1692678;83;22066;-82
2021/11/11 06:45:12;;;;;;;19.35;12.98;;;;;;;-1.61;100.00;103056.06;1698844;82;21169;-81
2021/11/11 06:47:40;;;;;;;19.40;13.37;;;;;;;-1.41;100.00;103053.34;1677944;82;21440;-81
2021/11/11 06:50:09;;;;;;;18.07;11.95;;;;;;;-1.41;100.00;103053.34;1732007;81;21824;-81
2021/11/11 06:52:37;;;;;;;18.92;12.33;;;;;;;-1.32;100.00;103054.33;1740068;82;21030;-83
2021/11/11 06:55:08;;;;;;;16.12;11.65;;;;;;;-1.20;100.00;103053.63;1740676;81;21054;-82
2021/11/11 06:57:37;;;;;;;19.55;11.65;;;;;;;-1.06;100.00;103055.53;1740665;82;21109;-82
2021/11/11 07:00:09;;;;;;;17.30;10.25;;;;;;;-0.94;100.00;103052.27;1740004;81;21007;-83
2021/11/11 07:02:38;;;;;;;15.88;10.38;;;;;;;-0.85;100.00;103045.55;1714080;82;21070;-83
2021/11/11 07:05:07;;;;;;;17.17;10.40;;;;;;;-0.73;100.00;103038.44;1740621;82;21022;-83
2021/11/11 07:07:35;;;;;;;13.72;10.23;;;;;;;-0.61;100.00;103042.83;1740719;82;21014;-83
2021/11/11 07:10:03;;;;;;;15.30;10.50;;;;;;;-0.53;100.00;103040.37;1740066;82;21101;-83
2021/11/11 07:12:31;;;;;;;18.40;11.10;;;;;;;-0.43;100.00;103037.47;1777850;80;21854;-84
2021/11/11 07:14:58;;;;;;;16.55;11.10;;;;;;;-0.37;100.00;103040.95;1785035;80;21041;-84
2021/11/11 07:17:26;;;;;;;14.23;10.78;;;;;;;-0.24;100.00;103038.06;1785057;80;21025;-84
2021/11/11 07:19:53;;;;;;;15.03;10.35;;;;;;;-0.16;100.00;103037.70;1785291;80;21129;-83
2021/11/11 07:22:21;;;;;;;22.73;9.95;;;;;;;-0.07;100.00;103040.79;1785113;80;21103;-84
2021/11/11 07:24:48;;;;;;;14.10;9.58;;;;;;;0.02;100.00;103045.12;1778123;80;22389;-83
2021/11/11 07:27:15;;;;;;;12.10;9.13;;;;;;;0.10;100.00;103041.35;1785331;80;21054;-83
2021/11/11 07:29:42;;;;;;;13.75;8.38;;;;;;;0.19;100.00;103030.30;1785058;80;21083;-83
2021/11/11 07:32:08;;;;;;;15.38;9.38;;;;;;;0.27;100.00;103029.52;1802484;78;21021;-83
2021/11/11 07:34:37;;;;;;;11.22;8.48;;;;;;;0.36;100.00;103028.71;1790058;79;21820;-83
2021/11/11 07:37:05;;;;;;;14.18;8.88;;;;;;;0.45;100.00;103023.65;1775249;80;21058;-83
2021/11/11 07:39:34;;;;;;;12.98;8.63;;;;;;;0.55;100.00;103018.58;1772750;80;21039;-83
2021/11/11 07:42:01;;;;;;;15.80;8.70;;;;;;;0.62;100.00;103016.48;1772310;80;21505;-83
2021/11/11 07:44:31;;;;;;;11.28;7.20;;;;;;;0.71;100.00;103015.24;1774052;80;21629;-83
2021/11/11 07:46:58;;;;;;;11.25;7.12;;;;;;;0.82;100.00;103015.28;1777831;80;21104;-82
2021/11/11 07:49:25;;;;;;;11.05;7.90;;;;;;;0.91;100.00;103010.61;1780052;80;21049;-83
2021/11/11 07:51:54;;;;;;;11.25;7.78;;;;;;;0.99;100.00;103010.66;1745660;80;21534;-82
2021/11/11 07:54:21;;;;;;;13.93;7.87;;;;;;;1.07;100.00;103012.38;1745699;82;21506;-83
2021/11/11 07:56:48;;;;;;;13.88;8.45;;;;;;;1.18;100.00;103011.12;1745888;81;20994;-82
2021/11/11 07:59:15;;;;;;;14.58;8.45;;;;;;;1.28;100.00;103009.86;1745626;81;21163;-82
2021/11/11 08:01:42;;;;;;;12.28;8.43;;;;;;;1.34;100.00;103013.72;1745573;82;21500;-83
2021/11/11 08:04:09;;;;;;;17.55;10.40;;;;;;;1.37;100.00;103005.59;1745542;82;21504;-83
2021/11/11 08:06:38;;;;;;;17.92;10.63;;;;;;;1.45;100.00;103009.48;1738475;81;21082;-82
2021/11/11 08:09:06;;;;;;;20.75;11.60;;;;;;;1.52;100.00;103016.33;1745606;80;21034;-83
2021/11/11 08:11:34;;;;;;;26.85;12.40;;;;;;;1.59;100.00;103000.52;1745290;81;21081;-82
2021/11/11 08:14:05;;;;;;;19.12;11.03;;;;;;;1.63;100.00;102998.80;1748734;80;21416;-82
2021/11/11 08:16:31;;;;;;;21.02;11.35;;;;;;;1.66;100.00;102992.36;1783020;80;21080;-82
2021/11/11 08:18:59;;;;;;;21.93;11.70;;;;;;;1.67;100.00;102987.66;1784561;80;21582;-83
2021/11/11 08:21:26;;;;;;;18.90;11.30;;;;;;;1.68;100.00;102985.52;1762366;80;21022;-82
2021/11/11 08:23:53;;;;;;;24.87;11.25;;;;;;;1.70;100.00;102986.39;1777701;80;21026;-81
2021/11/11 08:26:19;;;;;;;19.32;10.90;;;;;;;1.71;100.00;102979.11;1771918;80;21026;-81
2021/11/11 08:28:47;;;;;;;25.43;11.15;;;;;;;1.87;100.00;102978.25;1764458;80;21026;-80
2021/11/11 08:31:14;;;;;;;41.37;12.63;;;;;;;2.05;100.00;102972.64;1777146;80;21017;-82
2021/11/11 08:33:41;;;;;;;42.60;13.55;;;;;;;2.21;100.00;102964.05;1761920;80;21542;-80
2021/11/11 08:36:08;;;;;;;45.08;13.32;;;;;;;2.37;100.00;102958.86;1754920;80;21139;-80
2021/11/11 08:38:36;;;;;;;37.93;12.53;;;;;;;2.51;100.00;102940.40;1739872;80;21093;-81
2021/11/11 08:41:03;;;;;;;27.50;12.45;;;;;;;2.64;100.00;102949.34;1769362;80;21053;-81
2021/11/11 08:43:31;;;;;;;29.05;12.37;;;;;;;2.76;100.00;102944.56;1782555;79;21559;-81
2021/11/11 08:45:58;;;;;;;75.55;16.32;;;;;;;2.90;100.00;102950.94;1739453;82;21054;-81
2021/11/11 08:48:26;;;;;;;52.70;13.75;;;;;;;2.90;100.00;102950.94;1732561;82;21141;-83
2021/11/11 08:50:55;;;;;;;67.05;17.10;;;;;;;3.01;100.00;102938.84;1732373;82;21584;-83
2021/11/11 08:53:22;;;;;;;52.05;15.28;;;;;;;3.23;100.00;102933.12;1733106;82;21527;-82
2021/11/11 08:55:50;;;;;;;60.70;16.07;;;;;;;3.23;100.00;102933.12;1732746;82;21597;-83
2021/11/11 08:58:20;;;;;;;46.85;14.33;;;;;;;3.28;100.00;102921.51;1733193;82;21627;-83
2021/11/11 09:00:51;;;;;;;41.87;15.03;;;;;;;3.36;100.00;102921.46;1703924;82;22434;-83
2021/11/11 09:03:20;;;;;;;37.85;12.80;;;;;;;3.41;100.00;102915.38;1732904;82;21246;-83
2021/11/11 09:05:48;;;;;;;25.08;12.78;;;;;;;3.42;100.00;102914.52;1704201;82;21682;-82
2021/11/11 09:08:15;;;;;;;44.50;14.40;;;;;;;3.46;100.00;102905.92;1691271;83;21056;-82
2021/11/11 09:10:45;;;;;;;36.55;15.23;;;;;;;3.51;100.00;102905.88;1684016;84;21125;-82
2021/11/11 09:13:13;;;;;;;28.25;13.72;;;;;;;3.61;100.00;102893.31;1747982;81;21027;-83
2021/11/11 09:15:40;;;;;;;41.50;15.32;;;;;;;3.73;100.00;102892.78;1716591;81;21005;-82
2021/11/11 09:18:08;;;;;;;35.33;17.27;;;;;;;3.73;100.00;102892.78;1747701;81;21009;-83
2021/11/11 09:20:39;;;;;;;30.23;17.62;;;;;;;3.76;100.00;102892.33;1756734;80;21542;-82
2021/11/11 09:23:07;;;;;;;44.80;20.88;;;;;;;3.79;100.00;102906.48;1748847;80;21025;-83
2021/11/11 09:25:35;;;;;;;65.10;21.40;;;;;;;3.77;100.00;102895.33;1784924;80;21834;-82
2021/11/11 09:28:04;;;;;;;51.40;23.00;;;;;;;3.77;100.00;102895.33;1784474;80;21011;-82
2021/11/11 09:30:36;;;;;;;54.33;23.77;;;;;;;3.83;100.00;102889.67;1750019;80;21840;-83
2021/11/11 09:33:04;;;;;;;;;;;;;;;3.86;100.00;102883.21;1749336;80;21045;-83
2021/11/11 09:35:33;;;;;;;46.60;24.95;;;;;;;3.99;100.00;102877.05;1709446;83;20150;-83
2021/11/11 09:38:00;;;;;;;38.95;22.70;;;;;;;4.05;100.00;102866.66;1703498;83;21150;-83
2021/11/11 09:40:29;;;;;;;38.00;19.48;;;;;;;4.12;100.00;102857.13;1712398;83;21028;-83
2021/11/11 09:42:58;;;;;;;32.85;20.30;;;;;;;4.16;100.00;102854.08;1672761;84;21093;-82
2021/11/11 09:45:30;;;;;;;43.68;20.30;;;;;;;4.15;100.00;102851.95;1694554;84;21034;-83
2021/11/11 09:47:59;;;;;;;39.23;19.92;;;;;;;4.16;100.00;102849.80;1694228;84;21164;-82
2021/11/11 09:50:29;;;;;;;42.50;20.12;;;;;;;4.21;100.00;102841.55;1694524;84;21121;-82
2021/11/11 09:52:56;;;;;;;32.78;19.82;;;;;;;4.29;100.00;102843.17;1728302;82;20998;-82
2021/11/11 10:00:59;;;;;;;30.70;18.12;;;;;;;4.23;100.00;102837.23;1784943;78;21076;-82
2021/11/11 10:03:27;;;;;;;37.55;19.25;;;;;;;4.26;100.00;102833.75;1763017;79;21058;-84
2021/11/11 10:05:56;;;;;;;32.45;18.45;;;;;;;4.26;100.00;102833.75;1798670;79;21116;-83
2021/11/11 10:08:40;;;;;;;80.62;19.17;;;;;;;4.26;100.00;102829.88;1708567;82;21084;-82
2021/11/11 10:11:13;;;;;;;40.83;17.92;;;;;;;4.26;100.00;102829.88;1749176;81;21680;-82
2021/11/11 10:13:41;;;;;;;28.30;17.07;;;;;;;4.28;100.00;102825.56;1709576;83;21547;-82
2021/11/11 10:16:16;;;;;;;34.50;18.98;;;;;;;4.28;100.00;102826.86;1719915;81;21875;-82
2021/11/11 10:19:00;;;;;;;34.65;17.10;;;;;;;4.28;100.00;102827.28;1748996;81;21145;-83
2021/11/11 10:21:57;;;;;;;37.98;17.37;;;;;;;4.26;100.00;102827.31;1745612;81;21535;-82
2021/11/11 10:24:30;;;;;;;34.30;18.42;;;;;;;4.28;100.00;102830.73;1728318;82;21119;-82
2021/11/11 10:27:39;;;;;;;35.70;16.80;;;;;;;4.29;100.00;102821.25;1669447;83;21092;-83
2021/11/11 10:30:23;;;;;;;28.67;13.75;;;;;;;4.33;100.00;102825.48;1718867;81;21068;-82
2021/11/11 10:33:11;;;;;;;26.77;13.93;;;;;;;4.34;100.00;102831.93;1718997;81;21065;-83
2021/11/11 10:35:43;;;;;;;17.70;11.83;;;;;;;4.37;100.00;102820.70;1726360;81;21543;-82
2021/11/11 10:38:19;;;;;;;19.42;11.65;;;;;;;4.33;100.00;102814.74;1754288;81;20998;-83
2021/11/11 10:40:52;;;;;;;24.57;10.63;;;;;;;4.32;100.00;102806.58;1745567;81;21570;-82
2021/11/11 10:43:25;;;;;;;21.52;10.25;;;;;;;4.34;100.00;102810.00;1753060;81;21596;-82
2021/11/11 10:45:56;;;;;;;24.98;11.20;;;;;;;4.39;100.00;102807.36;1750038;81;21195;-82
2021/11/11 10:48:26;;;;;;;16.40;9.93;;;;;;;4.42;100.00;102797.85;1757786;81;21594;-82
2021/11/11 10:50:59;;;;;;;15.30;9.83;;;;;;;4.48;100.00;102799.91;1716236;82;21081;-82
2021/11/11 10:53:30;;;;;;;14.58;9.35;;;;;;;4.48;100.00;102794.75;1735857;80;21049;-82
2021/11/11 10:56:01;;;;;;;14.45;8.78;;;;;;;4.47;100.00;102774.56;1737000;80;21156;-83
2021/11/11 10:58:31;;;;;;;12.50;8.47;;;;;;;4.47;100.00;102763.38;1740103;80;21064;-83
2021/11/11 11:01:06;;;;;;;11.40;8.23;;;;;;;4.46;100.00;102769.41;1762519;80;21415;-83
2021/11/11 11:03:42;;;;;;;13.90;7.78;;;;;;;4.41;100.00;102757.86;1749674;81;21069;-83
2021/11/11 11:06:23;;;;;;;15.58;8.33;;;;;;;4.36;100.00;102754.09;1718319;81;21104;-83
2021/11/11 11:08:58;;;;;;;18.95;8.73;;;;;;;4.33;100.00;102746.38;1754906;81;21087;-82
2021/11/11 11:11:33;;;;;;;11.83;7.75;;;;;;;4.30;100.00;102736.55;1751501;81;21508;-83
2021/11/11 11:14:22;;;;;;;11.97;8.20;;;;;;;4.25;100.00;102724.56;1784938;79;21037;-82
2021/11/11 11:16:50;;;;;;;11.05;7.97;;;;;;;4.24;100.00;102719.43;1779879;80;21057;-82
2021/11/11 11:19:19;;;;;;;12.15;7.58;;;;;;;4.23;100.00;102725.46;1701710;82;21018;-82
2021/11/11 11:21:52;;;;;;;12.65;7.33;;;;;;;4.21;100.00;102723.33;1725624;81;21682;-82
2021/11/11 11:24:28;;;;;;;16.07;7.65;;;;;;;4.16;100.00;102721.27;1718567;83;21046;-82
2021/11/11 11:27:05;;;;;;;12.63;7.17;;;;;;;4.10;100.00;102725.65;1778002;80;21005;-82
2021/11/11 11:29:39;;;;;;;8.45;6.25;;;;;;;4.06;100.00;102711.53;1785081;80;21648;-82
2021/11/11 11:32:19;;;;;;;15.45;6.70;;;;;;;4.06;100.00;102717.53;1739957;80;21583;-82
2021/11/11 11:34:51;;;;;;;14.87;7.92;;;;;;;4.07;100.00;102714.53;1770642;80;21300;-82
2021/11/11 11:37:25;;;;;;;13.20;7.75;;;;;;;4.06;100.00;102703.80;1769802;80;21529;-82
2021/11/11 11:40:06;;;;;;;17.30;9.20;;;;;;;4.07;100.00;102696.03;1778923;80;21021;-82
2021/11/11 11:42:43;;;;;;;14.03;8.70;;;;;;;4.11;100.00;102687.81;1743087;79;21076;-83